createdAt,value
2017-07-11T00:00:42.267Z,24.20
2017-07-11T00:03:10.506Z,24.20
2017-07-11T00:05:38.731Z,24.30
2017-07-11T00:08:07.395Z,24.10
2017-07-11T00:10:35.631Z,24.10
2017-07-11T00:13:03.860Z,24.00
2017-07-11T00:15:32.126Z,24.00
2017-07-11T00:18:00.381Z,24.00
2017-07-11T00:20:28.605Z,23.90
2017-07-11T00:22:56.882Z,24.00
2017-07-11T00:25:25.521Z,24.10
2017-07-11T00:27:53.744Z,24.10
2017-07-11T00:30:22.020Z,24.10
2017-07-11T00:32:50.250Z,24.10
2017-07-11T00:35:18.488Z,24.20
2017-07-11T00:37:46.759Z,24.20
2017-07-11T00:40:14.997Z,24.20
2017-07-11T00:42:43.228Z,24.20
2017-07-11T00:45:11.484Z,24.20
2017-07-11T00:47:39.717Z,24.30
2017-07-11T00:50:07.944Z,24.30
2017-07-11T00:52:36.213Z,24.30
2017-07-11T00:55:04.745Z,24.30
2017-07-11T00:57:32.971Z,24.30
2017-07-11T01:00:01.236Z,24.30
2017-07-11T01:02:29.474Z,24.40
2017-07-11T01:04:57.708Z,24.40
2017-07-11T01:07:25.997Z,24.30
2017-07-11T01:09:54.229Z,24.30
2017-07-11T01:12:22.467Z,24.30
2017-07-11T01:14:50.734Z,24.40
2017-07-11T01:17:18.982Z,24.40
2017-07-11T01:19:47.272Z,24.40
2017-07-11T01:22:15.558Z,24.40
2017-07-11T01:24:43.795Z,24.40
2017-07-11T01:27:12.020Z,24.40
2017-07-11T01:29:40.290Z,24.40
2017-07-11T01:32:08.539Z,24.40
2017-07-11T01:34:36.768Z,24.40
2017-07-11T01:37:05.422Z,24.40
2017-07-11T01:39:33.647Z,24.30
2017-07-11T01:42:01.886Z,24.30
2017-07-11T01:44:30.155Z,24.40
2017-07-11T01:46:58.378Z,24.40
2017-07-11T01:49:26.614Z,24.40
2017-07-11T01:51:54.878Z,24.40
2017-07-11T01:54:23.128Z,24.50
2017-07-11T01:56:51.353Z,24.50
2017-07-11T01:59:20.020Z,24.60
2017-07-11T02:01:48.254Z,24.60
2017-07-11T02:04:16.484Z,24.60
2017-07-11T02:06:44.748Z,24.50
2017-07-11T02:09:12.981Z,24.60
2017-07-11T02:11:41.501Z,24.60
2017-07-11T02:14:09.785Z,24.50
2017-07-11T02:16:38.016Z,24.60
2017-07-11T02:19:06.252Z,24.60
2017-07-11T02:21:34.910Z,24.50
2017-07-11T02:24:03.146Z,24.50
2017-07-11T02:26:31.460Z,24.50
2017-07-11T02:28:59.809Z,24.50
2017-07-11T02:31:28.045Z,24.50
2017-07-11T02:33:56.677Z,24.50
2017-07-11T02:36:25.286Z,24.50
2017-07-11T02:38:53.774Z,24.50
2017-07-11T02:41:22.009Z,24.50
2017-07-11T02:43:50.283Z,24.50
2017-07-11T02:46:18.564Z,24.50
2017-07-11T02:48:46.792Z,24.50
2017-07-11T02:51:15.470Z,24.50
2017-07-11T02:53:43.709Z,24.50
2017-07-11T02:56:11.933Z,24.40
2017-07-11T02:58:40.593Z,24.50
2017-07-11T03:01:08.824Z,24.50
2017-07-11T03:03:37.061Z,24.50
2017-07-11T03:06:05.709Z,24.50
2017-07-11T03:08:33.936Z,24.50
2017-07-11T03:11:02.209Z,24.50
2017-07-11T03:13:30.488Z,24.40
2017-07-11T03:15:58.718Z,24.50
2017-07-11T03:18:26.957Z,24.50
2017-07-11T03:20:55.216Z,24.50
2017-07-11T03:23:23.449Z,24.50
2017-07-11T03:25:51.679Z,24.50
2017-07-11T03:28:19.977Z,24.40
2017-07-11T03:30:48.215Z,24.40
2017-07-11T03:33:16.844Z,24.40
2017-07-11T03:35:45.113Z,24.40
2017-07-11T03:38:13.337Z,24.40
2017-07-11T03:40:41.975Z,24.40
2017-07-11T03:43:10.232Z,24.40
2017-07-11T03:45:38.459Z,24.40
2017-07-11T03:48:06.696Z,24.40
2017-07-11T03:50:34.961Z,24.40
2017-07-11T03:53:03.192Z,24.50
2017-07-11T03:55:31.821Z,24.40
2017-07-11T03:58:00.125Z,24.40
2017-07-11T04:00:28.365Z,24.40
2017-07-11T04:02:56.592Z,24.40
2017-07-11T04:05:24.853Z,24.40
2017-07-11T04:07:53.095Z,24.40
2017-07-11T04:10:21.329Z,24.50
2017-07-11T04:12:49.601Z,24.50
2017-07-11T04:15:17.828Z,24.50
2017-07-11T04:17:46.069Z,24.50
2017-07-11T04:20:14.332Z,24.50
2017-07-11T04:22:42.621Z,24.50
2017-07-11T04:25:10.825Z,24.50
2017-07-11T04:27:39.115Z,24.50
2017-07-11T04:30:07.396Z,24.60
2017-07-11T04:32:35.633Z,24.60
2017-07-11T04:35:03.893Z,24.60
2017-07-11T04:37:32.527Z,24.60
2017-07-11T04:40:00.792Z,24.60
2017-07-11T04:42:29.048Z,24.50
2017-07-11T04:44:57.281Z,24.50
2017-07-11T04:47:25.519Z,24.50
2017-07-11T04:49:53.819Z,24.50
2017-07-11T04:52:22.041Z,24.60
2017-07-11T04:54:50.280Z,24.50
2017-07-11T04:57:18.869Z,24.50
2017-07-11T04:59:47.101Z,24.40
2017-07-11T05:02:15.336Z,24.40
2017-07-11T05:04:43.997Z,24.40
2017-07-11T05:07:12.304Z,24.40
2017-07-11T05:09:40.540Z,24.40
2017-07-11T05:12:08.826Z,24.40
2017-07-11T05:14:37.053Z,24.40
2017-07-11T05:17:05.296Z,24.50
2017-07-11T05:19:33.956Z,24.50
2017-07-11T05:22:02.195Z,24.50
2017-07-11T05:24:30.424Z,24.60
2017-07-11T05:26:58.684Z,24.60
2017-07-11T05:29:26.928Z,24.70
2017-07-11T05:31:55.177Z,24.80
2017-07-11T05:34:23.472Z,24.80
2017-07-11T05:36:51.714Z,24.90
2017-07-11T05:39:20.352Z,24.90
2017-07-11T05:41:48.609Z,24.90
2017-07-11T05:44:16.844Z,24.90
2017-07-11T05:46:45.061Z,24.90
2017-07-11T05:49:13.340Z,25.00
2017-07-11T05:51:41.577Z,25.00
2017-07-11T05:54:10.209Z,25.00
2017-07-11T05:56:38.510Z,25.00
2017-07-11T05:59:06.771Z,24.60
2017-07-11T06:01:35.029Z,23.90
2017-07-11T06:04:03.340Z,23.30
2017-07-11T06:06:31.584Z,22.50
2017-07-11T06:08:59.850Z,21.70
2017-07-11T06:11:28.277Z,21.60
2017-07-11T06:13:56.535Z,21.50
2017-07-11T06:16:25.010Z,21.50
2017-07-11T06:18:53.301Z,21.50
2017-07-11T06:21:22.865Z,21.80
2017-07-11T06:23:51.136Z,22.10
2017-07-11T06:26:19.629Z,22.40
2017-07-11T06:28:47.884Z,22.40
2017-07-11T06:31:16.141Z,22.10
2017-07-11T06:33:44.888Z,21.60
2017-07-11T06:36:13.145Z,21.60
2017-07-11T06:38:41.402Z,21.80
2017-07-11T06:41:09.781Z,22.20
2017-07-11T06:43:38.066Z,22.60
2017-07-11T06:46:06.362Z,22.80
2017-07-11T06:48:34.649Z,22.80
2017-07-11T06:51:02.935Z,22.90
2017-07-11T06:53:31.184Z,23.20
2017-07-11T06:55:59.568Z,23.40
2017-07-11T06:58:27.825Z,23.60
2017-07-11T07:00:56.166Z,23.80
2017-07-11T07:03:24.624Z,23.90
2017-07-11T07:05:53.119Z,23.90
2017-07-11T07:08:21.425Z,23.70
2017-07-11T07:10:49.948Z,23.50
2017-07-11T07:13:18.238Z,23.50
2017-07-11T07:15:46.497Z,23.70
2017-07-11T07:18:14.999Z,23.60
2017-07-11T07:20:43.251Z,23.40
2017-07-11T07:23:11.501Z,23.20
2017-07-11T07:25:39.789Z,23.40
2017-07-11T07:28:08.032Z,23.50
2017-07-11T07:30:36.307Z,23.80
2017-07-11T07:33:04.618Z,24.20
2017-07-11T07:35:32.922Z,24.50
2017-07-11T07:38:01.202Z,24.90
2017-07-11T07:40:29.461Z,25.30
2017-07-11T07:42:57.776Z,25.60
2017-07-11T07:45:26.626Z,25.80
2017-07-11T07:47:54.936Z,26.00
2017-07-11T07:50:23.198Z,26.00
2017-07-11T07:52:52.197Z,26.10
2017-07-11T07:55:20.478Z,25.70
2017-07-11T07:57:48.719Z,24.50
2017-07-11T08:00:16.981Z,23.50
2017-07-11T08:02:45.258Z,23.60
2017-07-11T08:05:13.506Z,23.50
2017-07-11T08:07:42.073Z,23.10
2017-07-11T08:10:10.363Z,23.50
2017-07-11T08:12:38.622Z,24.50
2017-07-11T08:15:06.872Z,25.10
2017-07-11T08:17:36.087Z,25.70
2017-07-11T08:20:04.352Z,26.40
2017-07-11T08:22:32.606Z,26.90
2017-07-11T08:25:00.929Z,27.30
2017-07-11T08:27:29.173Z,27.60
2017-07-11T08:29:57.521Z,27.90
2017-07-11T08:32:25.998Z,28.00
2017-07-11T08:34:55.169Z,28.00
2017-07-11T08:37:23.410Z,28.20
2017-07-11T08:39:51.774Z,28.00
2017-07-11T08:42:19.999Z,27.80
2017-07-11T08:44:48.647Z,28.10
2017-07-11T08:47:16.932Z,28.10
2017-07-11T08:49:45.187Z,28.40
2017-07-11T08:52:13.443Z,28.80
2017-07-11T08:54:41.725Z,29.10
2017-07-11T08:57:09.972Z,29.30
2017-07-11T08:59:38.830Z,29.60
2017-07-11T09:02:07.118Z,29.60
2017-07-11T09:04:35.357Z,29.40
2017-07-11T09:07:03.611Z,29.20
2017-07-11T09:09:32.819Z,29.20
2017-07-11T09:12:01.059Z,29.00
2017-07-11T09:14:30.066Z,28.00
2017-07-11T09:16:58.382Z,28.00
2017-07-11T09:19:26.667Z,28.10
2017-07-11T09:21:54.914Z,28.60
2017-07-11T09:24:23.248Z,29.20
2017-07-11T09:26:51.493Z,29.60
2017-07-11T09:29:19.770Z,30.10
2017-07-11T09:31:48.969Z,30.60
2017-07-11T09:34:17.270Z,30.80
2017-07-11T09:36:46.775Z,31.10
2017-07-11T09:39:15.051Z,31.30
2017-07-11T09:41:43.681Z,30.90
2017-07-11T09:44:12.678Z,30.90
2017-07-11T09:46:41.105Z,30.50
2017-07-11T09:49:09.695Z,30.20
2017-07-11T09:51:37.925Z,29.90
2017-07-11T09:54:06.274Z,29.50
2017-07-11T09:56:34.539Z,27.90
2017-07-11T09:59:02.787Z,27.90
2017-07-11T10:01:31.087Z,28.40
2017-07-11T10:03:59.642Z,29.10
2017-07-11T10:06:28.382Z,29.50
2017-07-11T10:08:56.701Z,29.60
2017-07-11T10:11:25.889Z,28.80
2017-07-11T10:13:54.144Z,28.50
2017-07-11T10:16:22.542Z,28.70
2017-07-11T10:18:50.826Z,28.50
2017-07-11T10:21:19.079Z,28.50
2017-07-11T10:23:47.330Z,28.50
2017-07-11T10:26:15.625Z,28.40
2017-07-11T10:28:43.867Z,28.80
2017-07-11T10:31:13.013Z,29.80
2017-07-11T10:33:41.631Z,29.80
2017-07-11T10:36:09.910Z,30.00
2017-07-11T10:38:38.644Z,30.10
2017-07-11T10:41:06.887Z,29.90
2017-07-11T10:43:35.155Z,29.80
2017-07-11T10:46:03.438Z,29.70
2017-07-11T10:48:32.065Z,29.50
2017-07-11T10:51:00.310Z,29.50
2017-07-11T10:53:28.615Z,29.60
2017-07-11T10:55:56.858Z,30.00
2017-07-11T10:58:25.105Z,30.50
2017-07-11T11:00:54.086Z,30.60
2017-07-11T11:03:22.319Z,30.50
2017-07-11T11:05:50.578Z,30.50
2017-07-11T11:08:18.851Z,30.50
2017-07-11T11:10:47.133Z,30.60
2017-07-11T11:13:15.366Z,30.10
2017-07-11T11:15:43.630Z,30.20
2017-07-11T11:18:12.087Z,30.40
2017-07-11T11:20:40.346Z,30.30
2017-07-11T11:23:08.637Z,30.10
2017-07-11T11:25:36.877Z,29.20
2017-07-11T11:28:05.115Z,29.00
2017-07-11T11:30:33.465Z,28.70
2017-07-11T11:33:01.717Z,29.10
2017-07-11T11:35:29.977Z,29.50
2017-07-11T11:37:58.257Z,29.80
2017-07-11T11:40:26.592Z,29.40
2017-07-11T11:42:54.813Z,28.40
2017-07-11T11:45:23.077Z,28.00
2017-07-11T11:47:51.716Z,27.90
2017-07-11T11:50:19.969Z,27.90
2017-07-11T11:52:48.261Z,28.60
2017-07-11T11:55:16.498Z,29.20
2017-07-11T11:57:45.143Z,29.60
2017-07-11T12:00:13.421Z,29.60
2017-07-11T12:02:41.877Z,29.00
2017-07-11T12:05:10.134Z,29.00
2017-07-11T12:07:38.426Z,28.80
2017-07-11T12:10:06.737Z,29.10
2017-07-11T12:12:35.015Z,29.20
2017-07-11T12:15:04.888Z,28.70
2017-07-11T12:17:33.136Z,28.10
2017-07-11T12:20:01.389Z,27.00
2017-07-11T12:22:29.670Z,26.90
2017-07-11T12:24:58.331Z,28.30
2017-07-11T12:27:26.561Z,28.40
2017-07-11T12:29:54.872Z,29.00
2017-07-11T12:32:23.124Z,29.30
2017-07-11T12:34:51.390Z,28.50
2017-07-11T12:37:19.686Z,28.60
2017-07-11T12:39:47.939Z,28.80
2017-07-11T12:42:16.187Z,27.90
2017-07-11T12:44:44.481Z,27.10
2017-07-11T12:47:12.813Z,26.60
2017-07-11T12:49:41.049Z,26.90
2017-07-11T12:52:09.363Z,27.60
2017-07-11T12:54:37.594Z,28.20
2017-07-11T12:57:06.058Z,28.70
2017-07-11T12:59:34.537Z,29.10
2017-07-11T13:02:03.004Z,29.20
2017-07-11T13:04:31.470Z,29.20
2017-07-11T13:06:59.738Z,28.90
2017-07-11T13:09:27.982Z,29.00
2017-07-11T13:11:56.239Z,29.10
2017-07-11T13:14:24.533Z,28.10
2017-07-11T13:16:52.821Z,27.10
2017-07-11T13:19:21.185Z,26.40
2017-07-11T13:21:49.474Z,26.00
2017-07-11T13:24:17.717Z,26.30
2017-07-11T13:26:46.198Z,27.20
2017-07-11T13:29:14.520Z,27.60
2017-07-11T13:31:42.799Z,28.00
2017-07-11T13:34:11.031Z,28.20
2017-07-11T13:36:39.311Z,28.00
2017-07-11T13:39:07.559Z,28.00
2017-07-11T13:41:35.797Z,28.20
2017-07-11T13:44:04.103Z,28.10
2017-07-11T13:46:32.351Z,27.90
2017-07-11T13:49:00.605Z,27.70
2017-07-11T13:51:28.920Z,27.30
2017-07-11T13:53:57.166Z,27.20
2017-07-11T13:56:25.451Z,27.20
2017-07-11T13:58:53.730Z,27.30
2017-07-11T14:01:21.997Z,27.20
2017-07-11T14:03:50.236Z,27.20
2017-07-11T14:06:18.519Z,27.20
2017-07-11T14:08:46.753Z,27.30
2017-07-11T14:11:15.236Z,27.40
2017-07-11T14:13:43.517Z,27.20
2017-07-11T14:16:11.761Z,27.20
2017-07-11T14:18:40.042Z,27.10
2017-07-11T14:21:08.352Z,26.60
2017-07-11T14:23:37.223Z,24.70
2017-07-11T14:26:05.491Z,24.70
2017-07-11T14:28:33.772Z,23.90
2017-07-11T14:31:02.042Z,23.70
2017-07-11T14:33:30.315Z,23.70
2017-07-11T14:35:58.704Z,24.10
2017-07-11T14:38:26.995Z,23.50
2017-07-11T14:40:55.705Z,22.70
2017-07-11T14:43:24.034Z,22.70
2017-07-11T14:45:52.298Z,23.00
2017-07-11T14:48:21.103Z,23.20
2017-07-11T14:50:49.394Z,23.20
2017-07-11T14:53:23.976Z,22.90
2017-07-11T14:55:52.659Z,23.00
2017-07-11T14:58:20.898Z,23.30
2017-07-11T15:00:49.645Z,24.10
2017-07-11T15:03:18.373Z,24.80
2017-07-11T15:05:46.658Z,24.80
2017-07-11T15:08:15.313Z,25.30
2017-07-11T15:10:43.642Z,25.30
2017-07-11T15:13:11.884Z,25.40
2017-07-11T15:15:40.549Z,26.00
2017-07-11T15:18:09.481Z,26.00
2017-07-11T15:20:37.761Z,26.40
2017-07-11T15:23:06.499Z,26.70
2017-07-11T15:25:34.795Z,26.70
2017-07-11T15:28:03.069Z,26.80
2017-07-11T15:30:31.325Z,26.90
2017-07-11T15:32:59.629Z,27.00
2017-07-11T15:35:28.284Z,27.20
2017-07-11T15:37:56.537Z,27.20
2017-07-11T15:40:24.830Z,27.40
2017-07-11T15:42:53.086Z,27.30
2017-07-11T15:45:21.360Z,27.20
2017-07-11T15:47:49.669Z,27.20
2017-07-11T15:50:17.919Z,27.20
2017-07-11T15:52:46.174Z,27.30
2017-07-11T15:55:14.459Z,27.40
2017-07-11T15:57:42.869Z,27.30
2017-07-11T16:00:11.446Z,27.00
2017-07-11T16:02:40.170Z,27.00
2017-07-11T16:05:08.427Z,27.00
2017-07-11T16:07:36.705Z,27.10
2017-07-11T16:10:05.065Z,27.30
2017-07-11T16:12:33.326Z,27.30
2017-07-11T16:15:01.577Z,27.30
2017-07-11T16:17:29.917Z,27.40
2017-07-11T16:19:58.602Z,27.40
2017-07-11T16:22:26.853Z,27.40
2017-07-11T16:24:55.171Z,27.40
2017-07-11T16:27:23.833Z,27.50
2017-07-11T16:29:52.090Z,27.50
2017-07-11T16:32:20.368Z,27.40
2017-07-11T16:34:48.618Z,27.30
2017-07-11T16:37:16.919Z,27.10
2017-07-11T16:39:46.087Z,27.00
2017-07-11T16:42:14.365Z,27.10
2017-07-11T16:44:42.669Z,27.10
2017-07-11T16:47:10.933Z,27.10
2017-07-11T16:49:39.329Z,27.10
2017-07-11T16:52:07.586Z,27.20
2017-07-11T16:54:35.861Z,27.20
2017-07-11T16:57:04.157Z,27.10
2017-07-11T16:59:32.402Z,27.20
2017-07-11T17:02:00.772Z,27.20
2017-07-11T17:04:29.308Z,27.20
2017-07-11T17:06:57.577Z,27.20
2017-07-11T17:09:26.077Z,27.30
2017-07-11T17:11:54.330Z,27.30
2017-07-11T17:14:22.591Z,27.30
2017-07-11T17:16:50.875Z,27.30
2017-07-11T17:19:19.119Z,27.20
2017-07-11T17:21:47.358Z,27.10
2017-07-11T17:24:16.116Z,27.00
2017-07-11T17:26:44.379Z,27.00
2017-07-11T17:29:12.634Z,26.90
2017-07-11T17:31:40.927Z,26.90
2017-07-11T17:34:09.190Z,27.00
2017-07-11T17:36:37.441Z,26.90
2017-07-11T17:39:05.751Z,26.70
2017-07-11T17:41:34.035Z,26.10
2017-07-11T17:44:02.280Z,26.10
2017-07-11T17:46:30.791Z,25.90
2017-07-11T17:48:59.274Z,25.80
2017-07-11T17:51:28.097Z,25.70
2017-07-11T17:53:57.804Z,25.80
2017-07-11T17:56:26.400Z,25.90
2017-07-11T17:58:55.143Z,25.50
2017-07-11T18:01:23.428Z,25.50
2017-07-11T18:03:53.174Z,25.10
2017-07-11T18:06:21.898Z,24.80
2017-07-11T18:08:50.290Z,24.90
2017-07-11T18:11:18.551Z,25.00
2017-07-11T18:13:46.809Z,25.20
2017-07-11T18:16:15.175Z,25.20
2017-07-11T18:18:43.425Z,25.20
2017-07-11T18:21:11.683Z,25.30
2017-07-11T18:23:40.062Z,25.40
2017-07-11T18:26:09.728Z,25.40
2017-07-11T18:28:39.290Z,25.30
2017-07-11T18:31:07.622Z,25.30
2017-07-11T18:33:35.872Z,25.40
2017-07-11T18:36:04.129Z,25.50
2017-07-11T18:38:32.420Z,25.60
2017-07-11T18:41:00.870Z,25.70
2017-07-11T18:43:29.469Z,25.80
2017-07-11T18:45:57.814Z,25.80
2017-07-11T18:48:26.365Z,25.80
2017-07-11T18:50:54.622Z,25.70
2017-07-11T18:53:23.390Z,25.90
2017-07-11T18:55:51.636Z,25.90
2017-07-11T18:58:19.894Z,25.80
2017-07-11T19:00:49.257Z,25.70
2017-07-11T19:03:17.516Z,25.70
2017-07-11T19:05:45.969Z,25.70
2017-07-11T19:08:14.308Z,25.70
2017-07-11T19:10:42.626Z,25.80
2017-07-11T19:13:10.882Z,25.80
2017-07-11T19:15:39.150Z,25.80
2017-07-11T19:18:07.419Z,25.90
2017-07-11T19:20:35.678Z,25.90
2017-07-11T19:23:03.989Z,26.00
2017-07-11T19:25:32.238Z,26.00
2017-07-11T19:28:00.512Z,26.00
2017-07-11T19:30:28.842Z,26.00
2017-07-11T19:32:57.163Z,26.00
2017-07-11T19:35:25.506Z,26.00
2017-07-11T19:37:54.085Z,26.00
2017-07-11T19:40:22.910Z,26.00
2017-07-11T19:42:51.413Z,26.00
2017-07-11T19:45:19.730Z,25.90
2017-07-11T19:47:48.010Z,25.90
2017-07-11T19:50:16.684Z,25.80
2017-07-11T19:52:44.984Z,25.80
2017-07-11T19:55:13.238Z,25.80
2017-07-11T19:57:41.513Z,25.70
2017-07-11T20:00:09.822Z,25.70
2017-07-11T20:02:38.489Z,25.70
2017-07-11T20:05:06.749Z,25.70
2017-07-11T20:07:35.137Z,25.70
2017-07-11T20:10:03.386Z,25.60
2017-07-11T20:12:31.769Z,25.60
2017-07-11T20:15:00.076Z,25.60
2017-07-11T20:17:28.349Z,25.60
2017-07-11T20:19:56.645Z,25.60
2017-07-11T20:22:29.799Z,25.60
2017-07-11T20:24:58.069Z,25.60
2017-07-11T20:27:26.331Z,25.60
2017-07-11T20:29:54.650Z,25.60
2017-07-11T20:32:23.205Z,25.60
2017-07-11T20:34:51.492Z,25.60
2017-07-11T20:37:20.097Z,25.60
2017-07-11T20:39:48.342Z,25.50
2017-07-11T20:42:16.597Z,25.50
2017-07-11T20:44:44.938Z,25.50
2017-07-11T20:47:13.591Z,25.50
2017-07-11T20:49:41.844Z,25.50
2017-07-11T20:52:10.148Z,25.50
2017-07-11T20:54:39.257Z,25.50
2017-07-11T20:57:07.509Z,25.50
2017-07-11T20:59:35.810Z,25.50
2017-07-11T21:02:04.470Z,24.90
2017-07-11T21:04:32.782Z,24.90
2017-07-11T21:07:01.452Z,24.50
2017-07-11T21:09:29.932Z,24.50
2017-07-11T21:11:58.192Z,24.30
2017-07-11T21:14:26.478Z,24.20
2017-07-11T21:16:55.255Z,23.80
2017-07-11T21:19:23.520Z,23.80
2017-07-11T21:21:51.839Z,23.60
2017-07-11T21:24:20.504Z,23.40
2017-07-11T21:26:49.008Z,23.40
2017-07-11T21:29:17.719Z,23.40
2017-07-11T21:31:45.961Z,23.40
2017-07-11T21:34:14.945Z,23.70
2017-07-11T21:36:43.277Z,23.70
2017-07-11T21:39:11.570Z,23.80
2017-07-11T21:41:45.326Z,23.90
2017-07-11T21:44:14.192Z,23.90
2017-07-11T21:46:42.443Z,24.00
2017-07-11T21:49:10.725Z,24.10
2017-07-11T21:51:38.980Z,24.20
2017-07-11T21:54:07.730Z,24.10
2017-07-11T21:56:36.296Z,24.10
2017-07-11T21:59:04.535Z,24.20
2017-07-11T22:01:33.654Z,24.20
2017-07-11T22:04:05.042Z,24.00
2017-07-11T22:06:35.487Z,23.80
2017-07-11T22:09:03.776Z,23.50
2017-07-11T22:11:32.039Z,23.20
2017-07-11T22:14:00.302Z,23.00
2017-07-11T22:16:28.631Z,23.00
2017-07-11T22:18:56.963Z,23.00
2017-07-11T22:21:25.387Z,23.00
2017-07-11T22:23:53.981Z,22.90
2017-07-11T22:26:22.247Z,22.90
2017-07-11T22:28:50.738Z,22.80
2017-07-11T22:31:19.139Z,22.80
2017-07-11T22:33:47.384Z,22.80
2017-07-11T22:36:15.656Z,22.80
2017-07-11T22:38:44.040Z,23.00
2017-07-11T22:41:12.320Z,23.00
2017-07-11T22:43:40.565Z,22.90
2017-07-11T22:46:08.830Z,22.80
2017-07-11T22:48:37.088Z,22.80
2017-07-11T22:51:05.766Z,22.60
2017-07-11T22:53:34.065Z,22.60
2017-07-11T22:56:02.309Z,22.60
2017-07-11T22:58:30.952Z,22.60
2017-07-11T23:00:59.265Z,22.60
2017-07-11T23:03:27.498Z,22.70
2017-07-11T23:05:55.763Z,22.60
2017-07-11T23:08:24.040Z,22.60
2017-07-11T23:10:52.855Z,22.70
2017-07-11T23:13:21.118Z,22.90
2017-07-11T23:15:53.379Z,23.10
2017-07-11T23:18:21.643Z,23.20
2017-07-11T23:20:49.909Z,23.10
2017-07-11T23:23:18.197Z,23.00
2017-07-11T23:25:46.451Z,23.00
2017-07-11T23:28:14.708Z,23.10
2017-07-11T23:30:43.421Z,22.90
2017-07-11T23:33:11.738Z,22.90
2017-07-11T23:35:40.000Z,22.90
2017-07-11T23:38:08.291Z,22.90
2017-07-11T23:40:36.784Z,23.00
2017-07-11T23:43:05.034Z,23.20
2017-07-11T23:45:33.340Z,23.00
2017-07-11T23:48:01.585Z,22.90
2017-07-11T23:50:29.836Z,23.00
2017-07-11T23:52:58.126Z,23.10
2017-07-11T23:55:26.409Z,23.20
2017-07-11T23:57:54.649Z,23.10
